LIPH METAR and TAF | Updated Today

LIPH METAR

Treviso-Sant'Angelo Airport

Observation time: 34 min. ago

LIPH 051950Z 01003KT 9999 BKN030 04/M01 Q1033

Need help? Read our tutorial on how to read METARs or read the parsed version below.

Treviso-Sant'Angelo Airport (LIPH) METAR

  • Weather conditions on Sun, 05 Feb 2023 19:50:00 +0000 (34 min. ago):
  • Present conditions: Dry
  • Clouds: Broken sky at 914 meters
  • Visibility: Greater than 10 km
  • Wind: 10 degrees at 3 knots
  • Temperature: 4 celsius
  • Dew point: -1 celsius
  • Pressure: 1033 millibars
  • Remarks: None


Useful to know...

LIPH TAF

Treviso-Sant'Angelo Airport

TAF LIPH 051700Z 0518/0618 VRB05KT 9999 BKN030
Observation time: 3:24 hr. ago
Need help? Read our tutorial on how to read TAFs or read the parsed version below.

Parsed version of TAF for Treviso-Sant'Angelo Airport (LIPH)

  • From 05 February at 18:00 UTC, to day 06 of the month at 18:00 UTC
  • Clouds: Broken sky at 914 meters
  • Visibility: Greater than 10 km
  • Wind: Variable at 5